Time;durP1;ratioP1;P1;durP2;ratioP2;P2;SDS_P1;SDS_P2;PMS_P1;PMS_P2;Temp;Humidity;BMP_temperature;BMP_pressure;BME280_temperature;BME280_humidity;BME280_pressure;Samples;Min_cycle;Max_cycle;Signal;HPM_P1;HPM_P2
2022/01/30 00:00:56;;;;;;;24.97;5.07;;;7.20;99.90;;;;;;4994984;28;20494;-47
2022/01/30 00:03:22;;;;;;;20.70;5.47;;;7.10;99.90;;;;;;4995215;28;20944;-47
2022/01/30 00:05:49;;;;;;;14.93;3.97;;;7.10;99.90;;;;;;4995006;28;20426;-46
2022/01/30 00:08:16;;;;;;;16.67;5.83;;;7.10;99.90;;;;;;4995145;28;20414;-47
2022/01/30 00:10:43;;;;;;;24.40;6.40;;;7.00;99.90;;;;;;4981352;28;20476;-46
2022/01/30 00:13:13;;;;;;;12.70;3.90;;;7.00;99.90;;;;;;4975275;28;20431;-46
2022/01/30 00:15:45;;;;;;;19.03;4.10;;;6.90;99.90;;;;;;4975688;28;20434;-47
2022/01/30 00:18:24;;;;;;;20.03;4.97;;;6.90;99.90;;;;;;4975660;28;20476;-46
2022/01/30 00:21:03;;;;;;;23.30;5.53;;;6.90;99.90;;;;;;4975442;28;20484;-46
2022/01/30 00:23:32;;;;;;;26.40;5.27;;;6.90;99.90;;;;;;4975444;28;20405;-46
2022/01/30 00:25:59;;;;;;;19.87;5.40;;;6.90;99.90;;;;;;4975357;28;20949;-46
2022/01/30 00:28:27;;;;;;;13.23;4.60;;;6.90;99.90;;;;;;4973693;28;20473;-47
2022/01/30 00:30:55;;;;;;;19.93;4.53;;;6.90;99.90;;;;;;4975525;28;20456;-46
2022/01/30 00:33:22;;;;;;;18.03;5.33;;;7.00;99.90;;;;;;4973915;28;20448;-46
2022/01/30 00:35:50;;;;;;;16.20;3.93;;;7.00;99.90;;;;;;4975448;28;20507;-47
2022/01/30 00:38:19;;;;;;;19.70;4.40;;;7.10;99.90;;;;;;4975284;28;20973;-47
2022/01/30 00:40:49;;;;;;;21.20;4.63;;;7.20;99.90;;;;;;4973349;28;20889;-47
2022/01/30 00:43:15;;;;;;;13.33;4.90;;;7.00;99.90;;;;;;4975304;28;20444;-46
2022/01/30 00:45:43;;;;;;;18.53;4.03;;;7.20;99.90;;;;;;4988839;28;20443;-46
2022/01/30 00:48:11;;;;;;;24.83;5.13;;;7.20;99.90;;;;;;4992824;28;20420;-46
2022/01/30 00:50:39;;;;;;;27.70;5.37;;;7.20;99.90;;;;;;4992666;28;20803;-46
2022/01/30 00:53:06;;;;;;;21.27;4.73;;;7.30;99.90;;;;;;4993010;28;20453;-46
2022/01/30 00:55:33;;;;;;;14.47;3.90;;;7.30;99.90;;;;;;4994234;28;20941;-46
2022/01/30 00:58:02;;;;;;;12.73;4.00;;;7.30;99.90;;;;;;4992654;28;20459;-46
2022/01/30 01:00:29;;;;;;;10.73;3.67;;;7.30;99.90;;;;;;4992080;28;20819;-46
2022/01/30 01:02:56;;;;;;;12.70;3.80;;;7.30;99.90;;;;;;4993909;28;20414;-46
2022/01/30 01:05:25;;;;;;;11.07;3.80;;;7.30;99.90;;;;;;4994074;28;20490;-47
2022/01/30 01:07:54;;;;;;;16.93;4.93;;;7.20;99.90;;;;;;4992802;28;20867;-47
2022/01/30 01:10:29;;;;;;;19.60;4.57;;;7.30;99.90;;;;;;4981664;28;20798;-46
2022/01/30 01:13:17;;;;;;;18.73;4.27;;;7.20;99.90;;;;;;4974479;28;20434;-46
2022/01/30 01:24:01;;;;;;;22.60;4.30;;;7.30;99.90;;;;;;4974279;28;20491;-46
2022/01/30 01:26:28;;;;;;;25.60;4.93;;;7.40;99.90;;;;;;4972637;28;20468;-47
2022/01/30 01:28:55;;;;;;;19.03;4.80;;;7.40;99.90;;;;;;4974013;28;20458;-46
2022/01/30 01:31:22;;;;;;;13.63;5.20;;;7.40;99.90;;;;;;4973118;28;20460;-46
2022/01/30 01:34:04;;;;;;;17.43;3.77;;;7.40;99.90;;;;;;4972775;28;20827;-47
2022/01/30 01:36:32;;;;;;;20.00;5.17;;;7.40;99.90;;;;;;4974199;28;20508;-47
2022/01/30 01:38:59;;;;;;;17.27;4.17;;;7.40;99.90;;;;;;4973808;28;20522;-47
2022/01/30 01:41:28;;;;;;;18.97;4.47;;;7.50;99.90;;;;;;4973870;28;20564;-46
2022/01/30 01:43:56;;;;;;;22.60;4.93;;;7.50;99.90;;;;;;4973932;28;21009;-47
2022/01/30 01:46:26;;;;;;;12.33;4.23;;;7.60;99.90;;;;;;4991752;28;20438;-47
2022/01/30 01:48:53;;;;;;;16.90;4.70;;;7.50;99.90;;;;;;4991299;28;20451;-47
2022/01/30 01:51:22;;;;;;;12.53;3.57;;;7.60;99.90;;;;;;4993144;28;20532;-46
2022/01/30 01:53:51;;;;;;;15.20;3.80;;;7.60;99.90;;;;;;4991806;28;20430;-47
2022/01/30 01:56:19;;;;;;;21.10;4.43;;;7.60;99.90;;;;;;4992940;28;20898;-47
2022/01/30 01:59:00;;;;;;;17.00;3.43;;;7.40;99.90;;;;;;4991380;28;21016;-47
2022/01/30 02:01:50;;;;;;;14.63;3.30;;;7.60;99.90;;;;;;4992937;28;20630;-47
2022/01/30 02:04:16;;;;;;;13.47;3.93;;;7.60;99.90;;;;;;4991720;28;20445;-47
2022/01/30 02:06:45;;;;;;;19.70;4.97;;;7.60;99.90;;;;;;4991520;28;20427;-47
2022/01/30 02:09:13;;;;;;;24.70;4.70;;;7.60;99.90;;;;;;4991246;28;20426;-47
2022/01/30 02:11:43;;;;;;;14.60;3.80;;;7.60;99.90;;;;;;4972441;28;20476;-47
2022/01/30 02:14:30;;;;;;;15.60;4.20;;;7.50;99.90;;;;;;4972175;28;20534;-47
2022/01/30 02:25:21;;;;;;;15.07;4.30;;;7.20;99.90;;;;;;4972222;28;20519;-47
2022/01/30 02:27:49;;;;;;;19.33;6.60;;;7.10;99.90;;;;;;4971822;28;20502;-47
2022/01/30 02:30:20;;;;;;;22.90;7.70;;;7.10;99.90;;;;;;4971498;28;20469;-47
2022/01/30 02:32:48;;;;;;;18.43;4.83;;;7.20;99.90;;;;;;4971737;28;20428;-46
2022/01/30 02:35:15;;;;;;;19.40;4.50;;;7.20;99.90;;;;;;4972231;28;20448;-46
2022/01/30 02:37:43;;;;;;;16.50;4.70;;;7.30;99.90;;;;;;4972187;28;20810;-47
2022/01/30 02:40:12;;;;;;;22.53;4.83;;;7.20;99.90;;;;;;4971687;28;20472;-46
2022/01/30 02:42:45;;;;;;;15.80;4.80;;;7.30;99.90;;;;;;4972014;28;21036;-46
2022/01/30 02:45:14;;;;;;;20.40;4.50;;;7.30;99.90;;;;;;4981640;28;20824;-47
2022/01/30 02:47:53;;;;;;;16.33;4.40;;;7.30;99.90;;;;;;4991445;28;20530;-46
2022/01/30 02:50:33;;;;;;;16.83;4.33;;;7.40;99.90;;;;;;4990629;28;21061;-47
2022/01/30 02:53:04;;;;;;;20.67;4.20;;;7.40;99.90;;;;;;4991235;28;20423;-47
2022/01/30 02:55:31;;;;;;;12.57;3.60;;;7.40;99.90;;;;;;4991080;28;20443;-46
2022/01/30 02:57:57;;;;;;;13.73;4.07;;;7.40;99.90;;;;;;4990902;28;20485;-47
2022/01/30 03:00:24;;;;;;;20.30;4.00;;;7.40;99.90;;;;;;4990273;28;20487;-47
2022/01/30 03:02:51;;;;;;;14.67;3.63;;;7.40;99.90;;;;;;4990758;28;20426;-46
2022/01/30 03:05:17;;;;;;;20.00;4.70;;;7.40;99.90;;;;;;4991093;28;20461;-46
2022/01/30 03:07:44;;;;;;;16.50;5.03;;;7.40;99.90;;;;;;4990924;28;20490;-46
2022/01/30 03:10:12;;;;;;;17.70;4.33;;;7.40;99.90;;;;;;4981143;28;20878;-46
2022/01/30 03:12:39;;;;;;;19.73;5.60;;;7.40;99.90;;;;;;4972837;28;20946;-47
2022/01/30 03:15:07;;;;;;;22.23;4.73;;;7.40;99.90;;;;;;4971511;28;20500;-46
2022/01/30 03:17:34;;;;;;;16.83;5.00;;;7.40;99.90;;;;;;4971302;28;20548;-47
2022/01/30 03:20:02;;;;;;;18.33;4.93;;;7.40;99.90;;;;;;4971217;28;20466;-46
2022/01/30 03:22:29;;;;;;;8.77;3.80;;;7.40;99.90;;;;;;4972819;28;20926;-47
2022/01/30 03:24:56;;;;;;;20.10;4.57;;;7.40;99.90;;;;;;4971627;28;20479;-47
2022/01/30 03:28:01;;;;;;;12.57;3.43;;;7.40;99.90;;;;;;4975015;28;20420;-46
2022/01/30 03:30:32;;;;;;;19.07;3.40;;;7.30;99.90;;;;;;4951813;29;20851;-46
2022/01/30 03:33:16;;;;;;;13.63;3.40;;;7.40;99.90;;;;;;4952341;28;20555;-46
2022/01/30 03:35:42;;;;;;;15.27;3.80;;;7.30;99.90;;;;;;4952395;29;20428;-47
2022/01/30 03:38:10;;;;;;;18.40;4.77;;;7.40;99.90;;;;;;4952739;28;20457;-46
2022/01/30 03:40:37;;;;;;;15.90;5.07;;;7.30;99.90;;;;;;4951825;28;20951;-46
2022/01/30 03:43:05;;;;;;;16.53;5.30;;;7.30;99.90;;;;;;4953165;28;20513;-47
2022/01/30 03:45:32;;;;;;;18.33;4.37;;;7.20;99.90;;;;;;4976599;28;20813;-47
2022/01/30 03:47:58;;;;;;;15.80;4.20;;;7.20;99.90;;;;;;4991198;28;20970;-46
2022/01/30 03:50:46;;;;;;;19.03;4.83;;;7.40;99.90;;;;;;4994989;28;20511;-47
2022/01/30 03:53:13;;;;;;;19.53;4.10;;;7.20;99.90;;;;;;4993959;28;20453;-47
2022/01/30 03:55:40;;;;;;;19.43;5.20;;;7.30;99.90;;;;;;4994064;28;20979;-47
2022/01/30 03:58:13;;;;;;;22.13;4.67;;;7.30;99.90;;;;;;4994304;28;20465;-47
2022/01/30 04:00:43;;;;;;;13.37;4.70;;;7.30;99.90;;;;;;4993689;28;21014;-47
2022/01/30 04:03:10;;;;;;;13.63;5.23;;;7.30;99.90;;;;;;4994022;28;20448;-46
2022/01/30 04:05:37;;;;;;;12.80;3.97;;;7.20;99.90;;;;;;4993848;28;20455;-47
2022/01/30 04:08:04;;;;;;;14.80;3.73;;;7.20;99.90;;;;;;4993918;28;20459;-47
2022/01/30 04:10:37;;;;;;;11.13;2.70;;;7.20;99.90;;;;;;4980817;28;20596;-47
2022/01/30 04:13:24;;;;;;;15.80;2.70;;;7.20;99.90;;;;;;4974426;28;20458;-47
2022/01/30 04:16:11;;;;;;;21.97;5.27;;;7.10;99.90;;;;;;4974209;28;20442;-47
2022/01/30 04:19:01;;;;;;;16.70;4.53;;;7.10;99.90;;;;;;4998037;23;20519;-46
2022/01/30 04:21:47;;;;;;;18.53;4.47;;;7.00;99.90;;;;;;4955006;29;20571;-45
2022/01/30 04:24:29;;;;;;;17.03;3.67;;;7.00;99.90;;;;;;4953678;29;20464;-45
2022/01/30 04:27:16;;;;;;;15.73;4.20;;;7.00;99.90;;;;;;4950702;29;20513;-47
2022/01/30 04:30:11;;;;;;;13.60;3.30;;;7.00;99.90;;;;;;4942730;29;20440;-46
2022/01/30 04:32:53;;;;;;;16.90;3.43;;;6.90;99.90;;;;;;4934689;29;20890;-46
2022/01/30 04:35:37;;;;;;;16.97;4.40;;;6.90;99.90;;;;;;4934309;29;20462;-46
2022/01/30 04:38:23;;;;;;;9.47;3.43;;;6.90;99.90;;;;;;4935776;29;20431;-47
2022/01/30 04:41:27;;;;;;;19.83;4.33;;;6.90;99.90;;;;;;4934096;29;20461;-46
2022/01/30 04:54:25;;;;;;;16.57;3.50;;;7.00;99.90;;;;;;4953116;29;20421;-46
2022/01/30 04:57:15;;;;;;;13.93;4.00;;;7.00;99.90;;;;;;4954062;29;20954;-46
2022/01/30 05:00:23;;;;;;;8.63;2.50;;;7.20;99.90;;;;;;4952593;28;20548;-46
2022/01/30 05:03:27;;;;;;;20.10;4.13;;;7.00;99.90;;;;;;4953255;29;20585;-47
2022/01/30 05:06:17;;;;;;;17.03;4.40;;;7.00;99.90;;;;;;4954828;29;20396;-50
2022/01/30 05:09:13;;;;;;;13.57;3.37;;;7.00;99.90;;;;;;4948745;28;20456;-47
2022/01/30 05:12:00;;;;;;;17.23;4.10;;;7.00;99.90;;;;;;4934708;29;20446;-47
2022/01/30 05:14:59;;;;;;;15.30;3.53;;;7.00;99.90;;;;;;4931283;29;20620;-45
2022/01/30 05:17:54;;;;;;;11.47;2.80;;;7.00;99.90;;;;;;4949578;29;20859;-46
2022/01/30 05:20:38;;;;;;;15.43;3.60;;;6.90;99.90;;;;;;4949040;28;20570;-45
2022/01/30 05:23:23;;;;;;;14.37;4.43;;;6.90;99.90;;;;;;4933610;29;20946;-45
2022/01/30 05:26:08;;;;;;;15.23;4.20;;;6.90;99.90;;;;;;4949517;29;20471;-46
2022/01/30 05:28:39;;;;;;;15.10;3.60;;;6.90;99.90;;;;;;4913860;29;20488;-45
2022/01/30 05:31:25;;;;;;;16.27;4.50;;;6.90;99.90;;;;;;4930037;29;20530;-46
2022/01/30 05:34:24;;;;;;;17.43;4.20;;;6.90;99.90;;;;;;4924709;29;20451;-46
2022/01/30 05:37:01;;;;;;;15.80;5.30;;;6.90;99.90;;;;;;4930052;29;20498;-47
2022/01/30 05:39:47;;;;;;;22.00;3.80;;;6.90;99.90;;;;;;4915655;29;20458;-46
2022/01/30 05:42:40;;;;;;;16.80;4.47;;;6.90;99.90;;;;;;4916116;29;20542;-47
2022/01/30 05:45:20;;;;;;;18.23;4.20;;;7.00;99.90;;;;;;4950290;28;20845;-46
2022/01/30 05:48:14;;;;;;;12.97;4.30;;;6.90;99.90;;;;;;4953059;29;20458;-47
2022/01/30 05:51:03;;;;;;;12.23;4.50;;;6.90;99.90;;;;;;4952093;28;21030;-46
2022/01/30 05:53:50;;;;;;;16.70;4.90;;;6.90;99.90;;;;;;4953501;29;20928;-46
2022/01/30 05:56:19;;;;;;;20.23;4.63;;;7.00;99.90;;;;;;4952129;29;20429;-47
2022/01/30 05:58:45;;;;;;;18.50;4.97;;;6.90;99.90;;;;;;4951547;29;20534;-47
2022/01/30 06:01:25;;;;;;;13.60;4.20;;;7.00;99.90;;;;;;4951694;29;20456;-47
2022/01/30 06:03:53;;;;;;;14.57;6.00;;;6.90;99.90;;;;;;4951850;29;20512;-46
2022/01/30 06:06:19;;;;;;;17.93;5.00;;;6.90;99.90;;;;;;4951886;29;20429;-46
2022/01/30 06:08:58;;;;;;;16.77;3.67;;;7.00;99.90;;;;;;4951221;29;20965;-45
2022/01/30 06:11:26;;;;;;;18.97;5.50;;;7.00;99.90;;;;;;4932440;29;20462;-46
2022/01/30 06:13:53;;;;;;;11.13;3.27;;;7.00;99.90;;;;;;4948550;29;20433;-47
2022/01/30 06:16:19;;;;;;;17.63;5.13;;;7.00;99.90;;;;;;4948571;29;20517;-47
2022/01/30 06:18:48;;;;;;;18.70;5.43;;;7.00;99.90;;;;;;4947999;29;20488;-46
2022/01/30 06:21:33;;;;;;;19.27;5.17;;;7.00;99.90;;;;;;4933947;29;20993;-47
2022/01/30 06:24:18;;;;;;;16.80;3.50;;;7.00;99.90;;;;;;4934343;29;20435;-46
2022/01/30 06:27:09;;;;;;;17.63;4.97;;;7.00;99.90;;;;;;4933934;29;20433;-46
2022/01/30 06:30:01;;;;;;;20.47;4.90;;;7.00;99.90;;;;;;4932329;29;20992;-47
2022/01/30 06:32:47;;;;;;;17.17;4.10;;;7.00;99.90;;;;;;4934389;29;20403;-47
2022/01/30 06:35:36;;;;;;;20.77;4.53;;;7.00;99.90;;;;;;4934128;29;20437;-46
2022/01/30 06:38:17;;;;;;;11.33;3.20;;;7.00;99.90;;;;;;4932540;29;20963;-46
2022/01/30 06:41:14;;;;;;;13.73;5.80;;;7.00;99.90;;;;;;4932369;29;20465;-46
2022/01/30 06:44:01;;;;;;;15.80;5.13;;;7.00;99.90;;;;;;4935094;29;20969;-46
2022/01/30 06:46:46;;;;;;;21.77;4.13;;;7.00;99.90;;;;;;4954490;29;20547;-46
2022/01/30 06:49:31;;;;;;;17.50;5.33;;;7.00;99.90;;;;;;4954255;28;20436;-46
2022/01/30 06:52:13;;;;;;;16.60;5.67;;;6.90;99.90;;;;;;4952247;29;20427;-44
2022/01/30 06:54:58;;;;;;;11.83;3.90;;;7.00;99.90;;;;;;4954299;29;20432;-46
2022/01/30 06:57:45;;;;;;;16.43;4.10;;;7.00;99.90;;;;;;4953678;29;20444;-46
2022/01/30 07:00:32;;;;;;;22.90;4.40;;;7.00;99.90;;;;;;4953662;28;20422;-45
2022/01/30 07:03:27;;;;;;;17.53;4.67;;;7.00;99.90;;;;;;4953473;29;20482;-46
2022/01/30 07:06:04;;;;;;;16.40;4.50;;;7.00;99.90;;;;;;4952740;29;20944;-46
2022/01/30 07:08:35;;;;;;;14.37;3.50;;;7.00;99.90;;;;;;4951764;29;20464;-47
2022/01/30 07:11:01;;;;;;;18.53;5.30;;;7.00;99.90;;;;;;4936634;28;20445;-46
2022/01/30 07:13:28;;;;;;;18.23;4.17;;;7.00;99.90;;;;;;4933694;29;20849;-47
2022/01/30 07:15:56;;;;;;;13.50;5.33;;;7.00;99.90;;;;;;4933293;29;20413;-46
2022/01/30 07:18:22;;;;;;;13.37;3.73;;;7.10;99.90;;;;;;4933104;29;20543;-46
2022/01/30 07:20:50;;;;;;;15.57;5.13;;;7.10;99.90;;;;;;4947380;28;20511;-46
2022/01/30 07:23:17;;;;;;;21.67;4.30;;;7.10;99.90;;;;;;4934292;29;20482;-46
2022/01/30 07:25:44;;;;;;;14.10;3.90;;;7.20;99.90;;;;;;4936760;29;20420;-47
2022/01/30 07:28:11;;;;;;;23.93;5.90;;;7.10;99.90;;;;;;4936417;29;20447;-46
2022/01/30 07:30:38;;;;;;;20.37;5.03;;;7.20;99.90;;;;;;4936511;29;20501;-46
2022/01/30 07:33:06;;;;;;;19.63;5.50;;;7.20;99.90;;;;;;4936716;29;20980;-47
2022/01/30 07:35:36;;;;;;;19.23;5.83;;;7.20;99.90;;;;;;4936783;29;20433;-46
2022/01/30 07:38:03;;;;;;;15.63;4.90;;;7.20;99.90;;;;;;4936288;29;20430;-46
2022/01/30 07:40:32;;;;;;;15.70;3.80;;;7.20;99.90;;;;;;4936213;29;20974;-45
2022/01/30 07:42:58;;;;;;;21.93;5.33;;;7.20;99.90;;;;;;4936335;29;21014;-46
2022/01/30 07:45:26;;;;;;;11.80;3.40;;;7.20;99.90;;;;;;4946743;29;20540;-47
2022/01/30 07:47:53;;;;;;;16.97;4.17;;;7.20;99.90;;;;;;4955681;28;20420;-45
2022/01/30 07:50:21;;;;;;;11.23;3.77;;;7.30;99.90;;;;;;4954962;28;20456;-46
2022/01/30 07:52:47;;;;;;;16.30;3.73;;;7.30;99.90;;;;;;4955492;29;20416;-45
2022/01/30 07:55:14;;;;;;;18.37;3.80;;;7.30;99.90;;;;;;4955304;28;20434;-47
2022/01/30 07:57:42;;;;;;;12.40;3.40;;;7.30;99.90;;;;;;4955703;28;20417;-46
2022/01/30 08:00:09;;;;;;;14.07;3.40;;;7.30;99.90;;;;;;4955100;28;20483;-47
2022/01/30 08:02:39;;;;;;;13.10;4.00;;;7.30;99.90;;;;;;4955404;28;20470;-47
2022/01/30 08:05:07;;;;;;;14.57;3.93;;;7.30;99.90;;;;;;4955257;28;20943;-47
2022/01/30 08:07:34;;;;;;;8.53;4.30;;;7.30;99.90;;;;;;4955374;28;20910;-46
2022/01/30 08:10:01;;;;;;;8.53;2.60;;;7.30;99.90;;;;;;4947322;28;21004;-45
2022/01/30 08:12:28;;;;;;;16.30;4.00;;;7.30;99.90;;;;;;4936115;29;20414;-46
2022/01/30 08:14:54;;;;;;;22.97;7.10;;;7.30;99.90;;;;;;4936401;29;20461;-46
2022/01/30 08:17:22;;;;;;;23.13;5.20;;;7.30;99.90;;;;;;4936084;29;20448;-46
2022/01/30 08:19:49;;;;;;;16.03;4.60;;;7.30;99.90;;;;;;4935220;29;20478;-46
2022/01/30 08:22:15;;;;;;;20.50;5.20;;;7.30;99.90;;;;;;4934504;29;20541;-45
2022/01/30 08:24:43;;;;;;;16.23;4.50;;;7.30;99.90;;;;;;4936069;29;20790;-49
2022/01/30 08:27:10;;;;;;;17.80;4.77;;;7.30;99.90;;;;;;4936067;29;20497;-46
2022/01/30 08:29:37;;;;;;;16.37;4.43;;;7.30;99.90;;;;;;4935496;29;20472;-46
2022/01/30 08:32:11;;;;;;;24.87;4.90;;;7.30;99.90;;;;;;4935735;29;20439;-46
2022/01/30 08:34:38;;;;;;;20.93;4.50;;;7.40;99.90;;;;;;4935399;29;20443;-48
2022/01/30 08:37:05;;;;;;;17.50;4.10;;;7.40;99.90;;;;;;4935775;29;20477;-46
2022/01/30 08:39:32;;;;;;;14.20;4.17;;;7.40;99.80;;;;;;4935572;29;20429;-46
2022/01/30 08:42:00;;;;;;;19.67;6.57;;;7.40;99.60;;;;;;4935619;29;20447;-47
2022/01/30 08:44:27;;;;;;;13.67;4.27;;;7.40;99.70;;;;;;4938933;29;20447;-47
2022/01/30 08:46:53;;;;;;;16.73;4.87;;;7.40;99.40;;;;;;4954769;29;20446;-45
2022/01/30 08:49:20;;;;;;;27.43;6.50;;;7.40;99.40;;;;;;4954562;28;20457;-46
2022/01/30 08:51:46;;;;;;;22.00;4.40;;;7.40;99.30;;;;;;4955689;28;20448;-46
2022/01/30 08:54:13;;;;;;;15.20;4.00;;;7.50;99.60;;;;;;4955500;28;20417;-47
2022/01/30 08:56:40;;;;;;;18.30;4.10;;;7.40;99.00;;;;;;4955638;28;20446;-46
2022/01/30 08:59:15;;;;;;;16.00;4.40;;;7.50;99.30;;;;;;4955381;28;20482;-46
2022/01/30 09:01:41;;;;;;;19.60;4.97;;;7.50;99.30;;;;;;4954983;28;20442;-47
2022/01/30 09:04:08;;;;;;;20.70;4.07;;;7.50;98.90;;;;;;4954509;28;20453;-45
2022/01/30 09:06:39;;;;;;;18.37;4.63;;;7.50;98.70;;;;;;4954416;28;20431;-46
2022/01/30 09:09:05;;;;;;;18.83;4.47;;;7.60;98.80;;;;;;4954099;28;20459;-47
2022/01/30 09:11:34;;;;;;;26.87;5.17;;;7.70;98.70;;;;;;4935111;29;20438;-47
2022/01/30 09:14:01;;;;;;;26.33;4.73;;;7.70;98.60;;;;;;4934781;29;20491;-47
2022/01/30 09:16:50;;;;;;;16.67;4.00;;;7.70;98.80;;;;;;4935019;29;20414;-47
2022/01/30 09:19:17;;;;;;;21.23;5.23;;;7.70;98.50;;;;;;4934483;29;20944;-47
2022/01/30 09:21:44;;;;;;;19.03;6.67;;;7.80;98.70;;;;;;4934910;29;20940;-47
2022/01/30 09:24:10;;;;;;;20.90;5.20;;;7.80;98.70;;;;;;4934724;29;20487;-47
2022/01/30 09:26:37;;;;;;;20.73;6.40;;;7.90;98.70;;;;;;4934468;29;20941;-47
2022/01/30 09:29:04;;;;;;;17.03;5.47;;;7.90;98.60;;;;;;4934127;29;20415;-47
2022/01/30 09:31:32;;;;;;;20.97;5.50;;;7.90;98.40;;;;;;4934001;29;20515;-48
2022/01/30 09:33:58;;;;;;;15.13;4.37;;;7.90;98.40;;;;;;4935469;29;20418;-46
2022/01/30 09:36:25;;;;;;;20.97;5.20;;;7.90;98.50;;;;;;4934998;29;20446;-47
2022/01/30 09:38:52;;;;;;;22.53;6.63;;;7.90;98.30;;;;;;4934038;29;20531;-47
2022/01/30 09:41:19;;;;;;;13.50;4.33;;;7.90;98.10;;;;;;4933243;29;20423;-47
2022/01/30 09:43:46;;;;;;;19.03;8.40;;;7.90;98.00;;;;;;4934687;29;20476;-47
2022/01/30 09:46:16;;;;;;;18.90;5.07;;;7.90;98.00;;;;;;4951571;28;20469;-47
2022/01/30 09:48:44;;;;;;;22.93;5.33;;;7.90;97.90;;;;;;4953320;28;20442;-47
2022/01/30 09:51:11;;;;;;;26.43;5.87;;;7.90;97.90;;;;;;4953418;28;20968;-47
2022/01/30 09:53:38;;;;;;;17.97;3.97;;;7.90;97.70;;;;;;4953283;29;20435;-46
2022/01/30 09:56:06;;;;;;;22.87;6.50;;;7.90;97.70;;;;;;4953468;28;20473;-46
2022/01/30 09:58:33;;;;;;;20.83;4.80;;;7.90;97.60;;;;;;4952997;28;20482;-47
2022/01/30 10:01:00;;;;;;;24.63;4.80;;;7.90;97.70;;;;;;4952322;28;20505;-47
2022/01/30 10:03:27;;;;;;;24.47;5.43;;;7.90;97.70;;;;;;4953803;28;20490;-47
2022/01/30 10:06:09;;;;;;;22.40;5.33;;;7.90;97.30;;;;;;4953257;28;20451;-46
2022/01/30 10:08:41;;;;;;;23.53;5.27;;;7.90;97.00;;;;;;4952813;28;20562;-44
2022/01/30 10:11:27;;;;;;;15.47;5.53;;;7.90;97.10;;;;;;4936492;28;20904;-46
2022/01/30 10:14:04;;;;;;;18.23;5.60;;;7.90;97.10;;;;;;4932541;29;20609;-47
2022/01/30 10:16:35;;;;;;;32.73;5.73;;;7.90;97.10;;;;;;4934037;29;20427;-46
2022/01/30 10:19:09;;;;;;;18.37;6.20;;;7.90;97.10;;;;;;4933628;29;20438;-46
2022/01/30 10:21:38;;;;;;;15.83;4.97;;;8.00;97.30;;;;;;5015376;23;20500;-45
2022/01/30 10:24:22;;;;;;;24.00;5.73;;;8.00;97.20;;;;;;5011862;28;20486;-48
2022/01/30 10:26:49;;;;;;;20.20;5.40;;;8.00;96.80;;;;;;5012123;28;20440;-48
2022/01/30 10:29:23;;;;;;;15.73;5.23;;;8.00;97.00;;;;;;5011764;28;20849;-45
2022/01/30 10:32:05;;;;;;;29.60;6.23;;;8.10;97.10;;;;;;4992388;28;20415;-46
2022/01/30 10:34:33;;;;;;;20.33;6.10;;;8.20;97.10;;;;;;5007416;28;20548;-45
2022/01/30 10:37:15;;;;;;;18.60;6.00;;;8.10;96.80;;;;;;4992532;28;20452;-44
2022/01/30 10:39:56;;;;;;;29.47;6.30;;;8.20;97.00;;;;;;4992193;28;20471;-46
2022/01/30 10:42:34;;;;;;;22.37;5.40;;;8.20;97.00;;;;;;4992602;28;20508;-46
2022/01/30 10:45:02;;;;;;;20.07;5.57;;;8.20;97.10;;;;;;5000786;28;20440;-47
2022/01/30 10:47:32;;;;;;;19.93;5.70;;;8.20;96.70;;;;;;5011748;28;20917;-45
2022/01/30 10:50:00;;;;;;;22.47;6.33;;;8.20;96.80;;;;;;5011522;28;20434;-45
2022/01/30 10:52:28;;;;;;;23.80;6.70;;;8.20;96.80;;;;;;5011888;28;20415;-45
2022/01/30 10:55:04;;;;;;;23.23;7.67;;;8.00;96.60;;;;;;5011789;28;20407;-44
2022/01/30 10:57:39;;;;;;;22.57;5.60;;;8.20;96.60;;;;;;5013358;28;20493;-46
2022/01/30 11:00:07;;;;;;;20.07;5.57;;;8.00;96.60;;;;;;5015160;28;20447;-48
2022/01/30 11:02:38;;;;;;;19.27;5.10;;;8.30;96.60;;;;;;5015850;28;20793;-48
2022/01/30 11:05:10;;;;;;;23.80;5.50;;;8.30;96.70;;;;;;5015724;28;20434;-46
2022/01/30 11:07:39;;;;;;;17.70;5.00;;;8.20;96.30;;;;;;5015264;28;20465;-44
2022/01/30 11:10:14;;;;;;;28.13;6.30;;;8.30;96.30;;;;;;5006784;28;20475;-45
2022/01/30 11:12:46;;;;;;;23.70;5.87;;;8.20;96.30;;;;;;4995886;28;20440;-46
2022/01/30 11:15:34;;;;;;;28.40;6.73;;;8.20;96.50;;;;;;4996358;28;20412;-46
2022/01/30 11:18:03;;;;;;;28.60;7.50;;;8.20;96.50;;;;;;4996157;28;20445;-46
2022/01/30 11:20:31;;;;;;;22.53;5.47;;;8.20;96.30;;;;;;4995515;28;20477;-45
2022/01/30 11:23:01;;;;;;;21.93;7.27;;;8.30;96.40;;;;;;4995764;28;20484;-45
2022/01/30 11:25:33;;;;;;;18.70;6.17;;;8.30;96.20;;;;;;4995953;28;20419;-45
2022/01/30 11:28:01;;;;;;;22.70;5.43;;;8.20;95.80;;;;;;4995668;28;20451;-45
2022/01/30 11:30:28;;;;;;;23.73;5.87;;;8.20;95.80;;;;;;4995243;28;20456;-45
2022/01/30 11:32:55;;;;;;;35.23;6.37;;;8.20;96.00;;;;;;4995458;28;20419;-47
2022/01/30 11:35:22;;;;;;;28.83;7.00;;;8.20;95.70;;;;;;4995419;28;20984;-46
2022/01/30 11:37:51;;;;;;;19.87;5.80;;;8.20;95.90;;;;;;4995451;28;20441;-47
2022/01/30 11:40:20;;;;;;;31.63;7.00;;;8.30;95.90;;;;;;4994820;28;20449;-44
2022/01/30 11:42:49;;;;;;;31.07;9.07;;;8.30;95.50;;;;;;4995317;28;20447;-48
2022/01/30 11:45:24;;;;;;;20.80;6.17;;;8.30;95.60;;;;;;5005521;28;20419;-46
2022/01/30 11:47:52;;;;;;;25.90;6.40;;;8.40;95.70;;;;;;5014545;28;20501;-45
2022/01/30 11:50:20;;;;;;;24.67;6.30;;;8.40;95.80;;;;;;5014813;28;20843;-44
2022/01/30 11:52:52;;;;;;;22.60;6.13;;;8.50;95.70;;;;;;5014658;28;20451;-45
2022/01/30 11:55:54;;;;;;;32.50;7.00;;;8.50;95.20;;;;;;5014760;28;20451;-45
2022/01/30 11:58:58;;;;;;;30.53;5.73;;;8.50;95.00;;;;;;5014286;28;20443;-47
2022/01/30 12:01:37;;;;;;;24.27;5.77;;;8.40;94.60;;;;;;5014414;28;20514;-45
2022/01/30 12:04:10;;;;;;;21.63;5.77;;;8.40;94.80;;;;;;5014644;28;20563;-45
2022/01/30 12:06:38;;;;;;;23.40;6.67;;;8.50;94.70;;;;;;5014560;28;20436;-45
2022/01/30 12:09:26;;;;;;;22.93;7.67;;;8.50;94.60;;;;;;5013253;28;20432;-45
2022/01/30 12:11:59;;;;;;;28.93;6.80;;;8.40;94.20;;;;;;4994807;28;20890;-46
2022/01/30 12:14:53;;;;;;;30.97;6.13;;;8.40;94.30;;;;;;4995435;28;20442;-47
2022/01/30 12:17:49;;;;;;;24.03;6.40;;;8.50;94.40;;;;;;4995534;28;20428;-46
2022/01/30 12:20:16;;;;;;;26.57;7.70;;;8.50;94.40;;;;;;4994022;28;20567;-46
2022/01/30 12:22:43;;;;;;;37.93;6.90;;;8.50;94.60;;;;;;4995254;28;20440;-46
2022/01/30 12:25:39;;;;;;;25.40;6.43;;;8.50;94.50;;;;;;4994452;28;20477;-46
2022/01/30 12:28:14;;;;;;;20.70;6.53;;;8.50;94.00;;;;;;4990374;28;20476;-45
2022/01/30 12:30:47;;;;;;;28.23;7.40;;;8.50;94.20;;;;;;4994853;28;20514;-46
2022/01/30 12:33:38;;;;;;;22.80;6.37;;;8.50;94.20;;;;;;4994945;28;20558;-46
2022/01/30 12:36:12;;;;;;;31.50;6.33;;;8.50;94.00;;;;;;4994676;28;20448;-46
2022/01/30 12:38:39;;;;;;;30.37;7.20;;;8.60;94.10;;;;;;4994160;28;20433;-45
2022/01/30 12:41:14;;;;;;;31.13;7.70;;;8.60;94.10;;;;;;5008812;28;20508;-45
2022/01/30 12:43:42;;;;;;;28.87;7.43;;;8.60;93.90;;;;;;4994088;28;20923;-45
2022/01/30 12:46:10;;;;;;;28.83;7.40;;;8.60;94.00;;;;;;5011905;28;20950;-44
2022/01/30 12:48:37;;;;;;;25.00;5.90;;;8.60;93.90;;;;;;5013290;28;20456;-45
2022/01/30 12:51:08;;;;;;;21.33;6.67;;;8.70;94.10;;;;;;5013420;28;20452;-45
2022/01/30 12:53:37;;;;;;;30.17;8.13;;;8.60;94.00;;;;;;5013433;28;20472;-48
2022/01/30 12:56:05;;;;;;;30.40;7.57;;;8.70;94.10;;;;;;5013623;28;20436;-45
2022/01/30 12:58:35;;;;;;;21.00;6.40;;;8.80;94.10;;;;;;5011830;28;20448;-47
2022/01/30 13:01:08;;;;;;;32.43;7.40;;;8.80;93.60;;;;;;5013310;28;20456;-44
2022/01/30 13:03:35;;;;;;;21.47;6.53;;;8.80;93.80;;;;;;5013867;28;20530;-46
2022/01/30 13:06:02;;;;;;;41.10;9.20;;;8.80;93.80;;;;;;5013268;28;20440;-45
2022/01/30 13:08:49;;;;;;;22.47;5.80;;;8.80;93.60;;;;;;5012893;28;20441;-45
2022/01/30 13:11:18;;;;;;;29.27;7.67;;;8.80;93.00;;;;;;4995388;28;20491;-45
2022/01/30 13:13:56;;;;;;;22.83;6.70;;;8.80;93.20;;;;;;4994131;28;20424;-45
2022/01/30 13:16:33;;;;;;;33.27;6.43;;;8.80;93.30;;;;;;4993772;28;20491;-45
2022/01/30 13:19:00;;;;;;;23.53;6.17;;;8.70;92.90;;;;;;4993281;28;20412;-45
2022/01/30 13:21:29;;;;;;;22.97;7.73;;;8.70;92.90;;;;;;4993041;28;20692;-45
2022/01/30 13:23:56;;;;;;;30.33;8.47;;;8.70;93.20;;;;;;4993759;28;20469;-45
2022/01/30 13:26:45;;;;;;;33.97;6.90;;;8.70;92.90;;;;;;4993474;28;20456;-45
2022/01/30 13:29:21;;;;;;;27.57;6.60;;;8.70;93.00;;;;;;4988091;28;20454;-46
2022/01/30 13:31:53;;;;;;;30.33;8.40;;;8.70;92.90;;;;;;4993313;28;20427;-44
2022/01/30 13:34:25;;;;;;;28.67;7.40;;;8.70;92.90;;;;;;4993121;28;20465;-47
2022/01/30 13:37:01;;;;;;;33.53;7.03;;;8.70;93.00;;;;;;4993253;28;20468;-47
2022/01/30 13:39:35;;;;;;;28.77;7.63;;;8.60;92.90;;;;;;4992907;28;20433;-45
2022/01/30 13:42:37;;;;;;;28.70;6.90;;;8.60;93.10;;;;;;4993012;28;20934;-44
2022/01/30 13:48:10;;;;;;;31.50;7.17;;;8.40;93.00;;;;;;5011988;28;20415;-46
2022/01/30 13:50:40;;;;;;;28.03;6.30;;;8.40;93.40;;;;;;5012444;28;20494;-44